Weather at Stella Maris Airport

Public forecast

Using degrees Celsius for public forecast. Weather courtesy of forecast.io.

Closest aviation weather report (METAR) to Stella Maris Airport

Closest report is San Salvador Airport, 50.1 nm (92.7 km) NE.

2024/07/20 06:00 (retrieved 60 minutes ago)

MYSM 200600Z AUTO 11008KT 9999 FEW019/// SCT023/// 29/26 A3013

Closest aviation forecast (TAF) to Stella Maris Airport

Closest forecast is Lynden Pindling International Airport, 148.7 nm (275.4 km) NW.

2024/07/20 06:20 (retrieved 40 minutes ago)

TAF MYNN 200515Z 2006/2106 14009KT 9999 FEW025 BKN200 FM202000 12015KT 9999 VCSH FEW015CB SCT018 BKN200 BECMG 2100/2102 11008KT